createdAt,value
2018-02-24T00:01:03.536Z,28.70
2018-02-24T00:03:31.148Z,33.13
2018-02-24T00:05:58.878Z,33.70
2018-02-24T00:08:26.494Z,34.13
2018-02-24T00:10:54.160Z,28.30
2018-02-24T00:13:21.847Z,25.90
2018-02-24T00:15:49.529Z,24.77
2018-02-24T00:18:17.159Z,29.17
2018-02-24T00:20:44.793Z,36.30
2018-02-24T00:23:12.455Z,23.37
2018-02-24T00:25:40.336Z,21.50
2018-02-24T00:28:08.075Z,32.90
2018-02-24T00:30:35.677Z,22.80
2018-02-24T00:33:03.460Z,35.00
2018-02-24T00:35:31.132Z,23.03
2018-02-24T00:37:58.804Z,32.20
2018-02-24T00:40:26.557Z,39.20
2018-02-24T00:42:54.262Z,24.87
2018-02-24T00:45:21.949Z,35.03
2018-02-24T00:47:49.680Z,13.60
2018-02-24T00:50:17.267Z,29.57
2018-02-24T00:52:45.036Z,38.47
2018-02-24T00:55:12.734Z,18.90
2018-02-24T00:57:40.415Z,29.53
2018-02-24T01:00:08.302Z,30.00
2018-02-24T01:02:35.911Z,20.67
2018-02-24T01:05:03.641Z,28.17
2018-02-24T01:07:31.429Z,24.47
2018-02-24T01:09:59.197Z,31.00
2018-02-24T01:12:26.876Z,31.23
2018-02-24T01:14:54.458Z,40.93
2018-02-24T01:17:22.119Z,22.17
2018-02-24T01:19:49.703Z,25.57
2018-02-24T01:22:17.367Z,20.87
2018-02-24T01:24:45.052Z,24.70
2018-02-24T01:27:12.719Z,28.87
2018-02-24T01:29:40.399Z,30.53
2018-02-24T01:32:07.986Z,26.77
2018-02-24T01:34:35.640Z,23.83
2018-02-24T01:37:03.379Z,31.67
2018-02-24T01:39:31.130Z,23.13
2018-02-24T01:41:58.840Z,38.33
2018-02-24T01:44:26.427Z,18.20
2018-02-24T01:46:54.116Z,32.67
2018-02-24T01:49:21.809Z,17.07
2018-02-24T01:51:49.591Z,36.47
2018-02-24T01:54:17.248Z,23.73
2018-02-24T01:56:44.943Z,18.77
2018-02-24T01:59:12.720Z,25.40
2018-02-24T02:01:40.499Z,34.03
2018-02-24T02:04:08.270Z,26.03
2018-02-24T02:06:35.909Z,25.43
2018-02-24T02:09:03.693Z,30.90
2018-02-24T02:11:31.438Z,35.17
2018-02-24T02:13:59.079Z,32.63
2018-02-24T02:16:26.749Z,23.20
2018-02-24T02:18:54.533Z,24.43
2018-02-24T02:21:22.164Z,27.27
2018-02-24T02:23:49.775Z,25.93
2018-02-24T02:26:17.428Z,27.77
2018-02-24T02:28:45.082Z,16.00
2018-02-24T02:31:12.912Z,25.80
2018-02-24T02:33:40.560Z,22.37
2018-02-24T02:36:08.243Z,21.20
2018-02-24T02:38:35.935Z,25.47
2018-02-24T02:41:03.509Z,22.83
2018-02-24T02:43:31.159Z,18.73
2018-02-24T02:45:58.740Z,36.67
2018-02-24T02:48:26.533Z,25.70
2018-02-24T02:50:54.141Z,41.00
2018-02-24T02:53:21.761Z,29.23
2018-02-24T02:55:49.446Z,17.83
2018-02-24T02:58:17.131Z,25.53
2018-02-24T03:00:44.801Z,26.73
2018-02-24T03:03:12.582Z,24.07
2018-02-24T03:05:40.265Z,31.10
2018-02-24T03:08:07.859Z,23.00
2018-02-24T03:10:35.476Z,32.57
2018-02-24T03:13:03.049Z,17.60
2018-02-24T03:15:30.756Z,36.77
2018-02-24T03:17:58.432Z,29.47
2018-02-24T03:20:26.104Z,21.97
2018-02-24T03:22:53.886Z,32.53
2018-02-24T03:25:21.671Z,26.53
2018-02-24T03:27:49.330Z,38.63
2018-02-24T03:30:17.009Z,16.03
2018-02-24T03:32:44.672Z,31.53
2018-02-24T03:35:12.291Z,32.80
2018-02-24T03:37:39.895Z,29.73
2018-02-24T03:40:07.495Z,43.67
2018-02-24T03:42:35.108Z,32.67
2018-02-24T03:45:02.905Z,39.20
2018-02-24T03:47:30.640Z,33.67
2018-02-24T03:49:58.267Z,26.13
2018-02-24T03:52:26.050Z,23.17
2018-02-24T03:54:53.875Z,29.37
2018-02-24T03:57:21.654Z,22.17
2018-02-24T03:59:49.420Z,22.23
2018-02-24T04:02:17.006Z,30.30
2018-02-24T04:04:44.638Z,33.57
2018-02-24T04:07:12.438Z,33.10
2018-02-24T04:09:40.336Z,37.23
2018-02-24T04:12:07.924Z,40.37
2018-02-24T04:14:35.527Z,15.57
2018-02-24T04:17:03.312Z,28.27
2018-02-24T04:19:31.126Z,27.80
2018-02-24T04:21:58.772Z,31.60
2018-02-24T04:24:26.347Z,28.47
2018-02-24T04:26:53.936Z,39.87
2018-02-24T04:29:21.742Z,20.97
2018-02-24T04:31:49.524Z,34.67
2018-02-24T04:34:17.292Z,31.67
2018-02-24T04:36:45.071Z,38.17
2018-02-24T04:39:12.739Z,43.77
2018-02-24T04:41:40.521Z,20.57
2018-02-24T04:44:08.192Z,25.23
2018-02-24T04:46:35.774Z,21.27
2018-02-24T04:49:03.416Z,17.87
2018-02-24T04:51:31.122Z,28.90
2018-02-24T04:53:58.901Z,30.30
2018-02-24T04:56:26.535Z,30.33
2018-02-24T04:58:54.122Z,24.03
2018-02-24T05:01:21.925Z,33.03
2018-02-24T05:03:49.668Z,24.93
2018-02-24T05:06:17.377Z,34.00
2018-02-24T05:08:45.230Z,35.03
2018-02-24T05:11:12.817Z,16.13
2018-02-24T05:13:40.510Z,40.37
2018-02-24T05:16:08.388Z,26.57
2018-02-24T05:18:36.048Z,41.63
2018-02-24T05:21:03.735Z,27.97
2018-02-24T05:23:31.408Z,45.57
2018-02-24T05:25:59.004Z,34.13
2018-02-24T05:28:26.612Z,30.97
2018-02-24T05:30:54.444Z,37.43
2018-02-24T05:33:22.321Z,26.13
2018-02-24T05:35:49.993Z,32.67
2018-02-24T05:38:17.656Z,38.10
2018-02-24T05:40:45.451Z,30.27
2018-02-24T05:43:13.128Z,23.97
2018-02-24T05:45:40.802Z,40.50
2018-02-24T05:48:08.569Z,31.50
2018-02-24T05:50:36.251Z,32.63
2018-02-24T05:53:03.920Z,26.60
2018-02-24T05:55:31.557Z,38.57
2018-02-24T05:57:59.261Z,28.60
2018-02-24T06:00:27.159Z,23.47
2018-02-24T06:02:54.743Z,26.63
2018-02-24T06:05:22.400Z,38.17
2018-02-24T06:07:50.017Z,29.50
2018-02-24T06:10:17.652Z,33.47
2018-02-24T06:12:45.431Z,34.30
2018-02-24T06:15:13.214Z,36.77
2018-02-24T06:17:40.991Z,35.13
2018-02-24T06:20:08.631Z,24.70
2018-02-24T06:22:36.244Z,20.17
2018-02-24T06:25:03.857Z,37.53
2018-02-24T06:27:31.649Z,30.27
2018-02-24T06:29:59.470Z,27.87
2018-02-24T06:32:27.138Z,34.07
2018-02-24T06:34:55.026Z,30.23
2018-02-24T06:37:22.694Z,39.83
2018-02-24T06:39:50.376Z,27.17
2018-02-24T06:42:18.049Z,51.00
2018-02-24T06:44:45.789Z,37.30
2018-02-24T06:47:13.609Z,39.07
2018-02-24T06:49:41.233Z,23.43
2018-02-24T06:52:08.935Z,34.93
2018-02-24T06:54:36.628Z,36.20
2018-02-24T06:57:04.350Z,27.83
2018-02-24T06:59:31.975Z,40.03
2018-02-24T07:01:59.636Z,31.60
2018-02-24T07:04:27.437Z,30.67
2018-02-24T07:06:55.106Z,36.67
2018-02-24T07:09:22.890Z,34.03
2018-02-24T07:11:50.530Z,21.63
2018-02-24T07:14:18.120Z,35.43
2018-02-24T07:16:45.701Z,21.57
2018-02-24T07:19:13.377Z,24.57
2018-02-24T07:21:41.036Z,19.23
2018-02-24T07:24:08.612Z,27.63
2018-02-24T07:26:36.196Z,26.17
2018-02-24T07:29:03.820Z,25.77
2018-02-24T07:31:31.392Z,21.30
2018-02-24T07:33:59.119Z,28.73
2018-02-24T07:36:26.692Z,25.83
2018-02-24T07:38:54.789Z,21.90
2018-02-24T07:41:22.507Z,24.50
2018-02-24T07:43:50.093Z,31.50
2018-02-24T07:46:17.912Z,33.97
2018-02-24T07:48:45.585Z,23.93
2018-02-24T07:51:13.265Z,25.80
2018-02-24T07:53:41.046Z,36.90
2018-02-24T07:56:08.718Z,24.07
2018-02-24T07:58:36.393Z,17.20
2018-02-24T08:01:04.027Z,22.90
2018-02-24T08:03:31.730Z,19.37
2018-02-24T08:05:59.407Z,25.70
2018-02-24T08:08:26.979Z,36.63
2018-02-24T08:10:54.775Z,16.97
2018-02-24T08:13:22.593Z,30.50
2018-02-24T08:15:50.187Z,23.80
2018-02-24T08:18:17.759Z,36.17
2018-02-24T08:20:45.396Z,26.03
2018-02-24T08:23:13.250Z,30.87
2018-02-24T08:25:41.026Z,23.33
2018-02-24T08:28:08.637Z,20.50
2018-02-24T08:30:36.266Z,25.23
2018-02-24T08:33:03.871Z,26.53
2018-02-24T08:35:32.752Z,21.50
2018-02-24T08:38:00.518Z,26.43
2018-02-24T08:40:28.083Z,24.77
2018-02-24T08:42:55.736Z,19.23
2018-02-24T08:45:23.433Z,25.50
2018-02-24T08:47:51.232Z,19.60
2018-02-24T08:50:19.009Z,23.33
2018-02-24T08:52:46.575Z,22.40
2018-02-24T08:55:14.227Z,19.67
2018-02-24T08:57:41.799Z,16.17
2018-02-24T09:00:09.727Z,19.90
2018-02-24T09:02:37.386Z,20.97
2018-02-24T09:05:05.165Z,23.90
2018-02-24T09:07:32.849Z,23.63
2018-02-24T09:10:00.571Z,25.70
2018-02-24T09:12:28.173Z,27.30
2018-02-24T09:14:55.857Z,19.33
2018-02-24T09:17:23.428Z,27.30
2018-02-24T09:19:51.002Z,19.47
2018-02-24T09:22:18.793Z,24.57
2018-02-24T09:24:46.570Z,22.50
2018-02-24T09:27:14.308Z,26.33
2018-02-24T09:29:41.930Z,18.33
2018-02-24T09:32:09.517Z,19.73
2018-02-24T09:34:37.155Z,17.97
2018-02-24T09:37:04.855Z,16.43
2018-02-24T09:39:32.567Z,20.20
2018-02-24T09:42:00.283Z,26.03
2018-02-24T09:44:27.971Z,20.33
2018-02-24T09:46:55.637Z,19.97
2018-02-24T09:49:23.267Z,15.00
2018-02-24T09:51:50.846Z,16.07
2018-02-24T09:54:18.455Z,28.73
2018-02-24T09:56:46.116Z,33.67
2018-02-24T09:59:13.806Z,13.13
2018-02-24T10:01:41.597Z,15.60
2018-02-24T10:04:09.265Z,20.40
2018-02-24T10:06:36.935Z,9.17
2018-02-24T10:09:04.704Z,20.77
2018-02-24T10:11:32.392Z,17.27
2018-02-24T10:14:00.071Z,27.17
2018-02-24T10:16:27.740Z,13.57
2018-02-24T10:18:55.532Z,12.80
2018-02-24T10:21:23.137Z,17.47
2018-02-24T10:23:50.776Z,18.83
2018-02-24T10:26:18.356Z,16.37
2018-02-24T10:28:46.015Z,29.83
2018-02-24T10:31:13.694Z,13.83
2018-02-24T10:33:41.578Z,14.57
2018-02-24T10:36:09.202Z,48.90
2018-02-24T10:38:36.930Z,30.53
2018-02-24T10:41:04.707Z,15.67
2018-02-24T10:43:32.359Z,12.47
2018-02-24T10:46:00.043Z,19.43
2018-02-24T10:48:27.631Z,13.83
2018-02-24T10:50:55.201Z,12.90
2018-02-24T10:53:22.852Z,13.40
2018-02-24T10:55:50.555Z,15.60
2018-02-24T10:58:18.122Z,14.53
2018-02-24T11:00:45.888Z,14.50
2018-02-24T11:03:13.573Z,11.47
2018-02-24T11:05:41.258Z,11.23
2018-02-24T11:08:09.138Z,12.10
2018-02-24T11:10:36.718Z,15.13
2018-02-24T11:13:04.563Z,11.30
2018-02-24T11:15:32.363Z,12.33
2018-02-24T11:18:00.148Z,13.17
2018-02-24T11:20:27.807Z,14.07
2018-02-24T11:22:55.373Z,9.03
2018-02-24T11:25:23.065Z,9.00
2018-02-24T11:27:50.701Z,8.13
2018-02-24T11:30:18.405Z,15.87
2018-02-24T11:32:45.973Z,9.80
2018-02-24T11:35:13.807Z,9.47
2018-02-24T11:37:41.441Z,20.27
2018-02-24T11:40:09.121Z,10.53
2018-02-24T11:42:37.001Z,9.53
2018-02-24T11:45:04.667Z,12.80
2018-02-24T11:47:32.339Z,12.73
2018-02-24T11:49:59.979Z,18.47
2018-02-24T11:52:27.700Z,13.97
2018-02-24T11:54:55.479Z,11.33
2018-02-24T11:57:23.140Z,11.27
2018-02-24T11:59:50.822Z,16.47
2018-02-24T12:02:18.504Z,15.57
2018-02-24T12:04:46.172Z,10.73
2018-02-24T12:07:13.847Z,7.23
2018-02-24T12:09:41.476Z,10.70
2018-02-24T12:12:09.187Z,9.07
2018-02-24T12:14:36.803Z,12.40
2018-02-24T12:17:04.409Z,11.23
2018-02-24T12:19:32.016Z,10.20
2018-02-24T12:21:59.722Z,7.20
2018-02-24T12:24:27.372Z,17.33
2018-02-24T12:26:55.047Z,7.53
2018-02-24T12:29:22.834Z,13.73
2018-02-24T12:31:50.608Z,9.33
2018-02-24T12:34:18.390Z,11.87
2018-02-24T12:36:46.062Z,9.10
2018-02-24T12:39:13.948Z,9.30
2018-02-24T12:41:41.619Z,7.40
2018-02-24T12:44:09.294Z,10.90
2018-02-24T12:46:36.906Z,8.70
2018-02-24T12:49:04.541Z,10.03
2018-02-24T12:51:32.208Z,16.17
2018-02-24T12:53:59.996Z,31.83
2018-02-24T12:56:27.667Z,14.10
2018-02-24T12:58:55.247Z,16.50
2018-02-24T13:01:22.979Z,8.43
2018-02-24T13:03:50.798Z,7.30
2018-02-24T13:06:18.403Z,7.87
2018-02-24T13:08:46.123Z,12.77
2018-02-24T13:11:13.746Z,10.50
2018-02-24T13:13:41.458Z,7.67
2018-02-24T13:16:09.087Z,4.57
2018-02-24T13:18:36.844Z,8.40
2018-02-24T13:21:04.673Z,9.83
2018-02-24T13:23:32.506Z,8.97
2018-02-24T13:26:00.178Z,8.67
2018-02-24T13:28:27.755Z,10.20
2018-02-24T13:30:55.419Z,8.67
2018-02-24T13:33:23.212Z,8.93
2018-02-24T13:35:50.991Z,6.50
2018-02-24T13:38:18.595Z,13.57
2018-02-24T13:40:46.388Z,6.83
2018-02-24T13:43:14.081Z,11.60
2018-02-24T13:45:41.654Z,7.60
2018-02-24T13:48:09.468Z,9.50
2018-02-24T13:50:37.050Z,6.07
2018-02-24T13:53:04.698Z,10.57
2018-02-24T13:55:32.387Z,15.77
2018-02-24T13:58:00.052Z,15.77
2018-02-24T14:00:27.845Z,9.50
2018-02-24T14:02:55.442Z,11.80
2018-02-24T14:05:23.085Z,8.10
2018-02-24T14:07:50.714Z,15.60
2018-02-24T14:10:18.275Z,7.70
2018-02-24T14:12:45.906Z,10.60
2018-02-24T14:15:13.694Z,13.00
2018-02-24T14:17:41.355Z,10.13
2018-02-24T14:20:08.935Z,8.40
2018-02-24T14:22:36.616Z,10.57
2018-02-24T14:25:04.779Z,6.33
2018-02-24T14:27:32.474Z,10.10
2018-02-24T14:30:00.265Z,10.53
2018-02-24T14:32:27.871Z,14.10
2018-02-24T14:34:55.504Z,9.57
2018-02-24T14:37:23.068Z,14.33
2018-02-24T14:39:50.764Z,9.47
2018-02-24T14:42:19.555Z,12.73
2018-02-24T14:44:47.335Z,12.53
2018-02-24T14:47:15.061Z,11.23
2018-02-24T14:49:42.768Z,11.03
2018-02-24T14:52:10.565Z,10.13
2018-02-24T14:54:38.339Z,9.73
2018-02-24T14:57:06.025Z,11.10
2018-02-24T14:59:33.796Z,8.67
2018-02-24T15:02:01.445Z,14.30
2018-02-24T15:04:29.250Z,5.90
2018-02-24T15:06:57.093Z,7.37
2018-02-24T15:09:24.676Z,6.90
2018-02-24T15:11:52.373Z,6.37
2018-02-24T15:14:20.005Z,4.97
2018-02-24T15:16:47.564Z,6.60
2018-02-24T15:19:15.137Z,12.20
2018-02-24T15:21:42.859Z,19.23
2018-02-24T15:24:10.455Z,10.73
2018-02-24T15:26:38.226Z,12.87
2018-02-24T15:29:06.107Z,9.03
2018-02-24T15:31:33.711Z,13.67
2018-02-24T15:34:01.350Z,9.43
2018-02-24T15:36:29.020Z,13.13
2018-02-24T15:38:56.614Z,6.30
2018-02-24T15:41:24.257Z,9.63
2018-02-24T15:43:52.056Z,5.50
2018-02-24T15:46:19.656Z,4.73
2018-02-24T15:48:47.293Z,5.80
2018-02-24T15:51:15.888Z,5.27
2018-02-24T15:53:43.678Z,6.87
2018-02-24T15:56:11.343Z,10.40
2018-02-24T15:58:38.979Z,7.43
2018-02-24T16:01:06.615Z,4.07
2018-02-24T16:03:34.266Z,7.63
2018-02-24T16:06:02.051Z,9.80
2018-02-24T16:08:29.831Z,7.40
2018-02-24T16:10:57.501Z,8.80
2018-02-24T16:13:25.286Z,7.10
2018-02-24T16:15:53.062Z,7.23
2018-02-24T16:18:20.784Z,7.37
2018-02-24T16:20:48.479Z,5.90
2018-02-24T16:23:16.084Z,10.23
2018-02-24T16:25:43.779Z,4.40
2018-02-24T16:28:11.441Z,6.63
2018-02-24T16:30:39.013Z,2.87
2018-02-24T16:33:06.772Z,6.73
2018-02-24T16:35:34.569Z,4.93
2018-02-24T16:38:02.349Z,8.40
2018-02-24T16:40:30.123Z,8.60
2018-02-24T16:42:57.704Z,8.17
2018-02-24T16:45:25.360Z,10.10
2018-02-24T16:47:53.037Z,8.70
2018-02-24T16:50:20.827Z,9.63
2018-02-24T16:52:48.669Z,11.03
2018-02-24T16:55:16.236Z,7.77
2018-02-24T16:57:43.839Z,10.30
2018-02-24T17:00:11.675Z,1.97
2018-02-24T17:02:39.355Z,5.67
2018-02-24T17:05:06.979Z,3.90
2018-02-24T17:07:34.608Z,4.77
2018-02-24T17:10:02.328Z,2.87
2018-02-24T17:12:29.901Z,9.13
2018-02-24T17:14:57.687Z,8.30
2018-02-24T17:17:25.266Z,7.00
2018-02-24T17:19:52.875Z,5.37
2018-02-24T17:22:20.604Z,10.80
2018-02-24T17:24:48.185Z,8.10
2018-02-24T17:27:15.959Z,14.70
2018-02-24T17:29:43.556Z,5.23
2018-02-24T17:32:11.205Z,9.20
2018-02-24T17:34:39.924Z,7.57
2018-02-24T17:37:07.786Z,19.23
2018-02-24T17:39:35.392Z,6.53
2018-02-24T17:42:03.132Z,4.70
2018-02-24T17:44:30.798Z,5.10
2018-02-24T17:46:58.594Z,6.67
2018-02-24T17:49:26.245Z,3.10
2018-02-24T17:51:54.038Z,7.70
2018-02-24T17:54:21.657Z,15.57
2018-02-24T17:56:49.392Z,9.43
2018-02-24T17:59:17.227Z,21.00
2018-02-24T18:01:44.940Z,11.73
2018-02-24T18:04:12.569Z,7.60
2018-02-24T18:06:40.299Z,6.07
2018-02-24T18:09:08.183Z,5.63
2018-02-24T18:11:35.850Z,4.53
2018-02-24T18:14:03.525Z,13.63
2018-02-24T18:16:31.344Z,7.70
2018-02-24T18:18:58.972Z,9.27
2018-02-24T18:21:26.757Z,6.10
2018-02-24T18:23:54.539Z,7.73
2018-02-24T18:26:22.211Z,10.60
2018-02-24T18:28:49.824Z,9.13
2018-02-24T18:31:17.740Z,3.50
2018-02-24T18:33:45.549Z,3.93
2018-02-24T18:36:13.240Z,3.50
2018-02-24T18:38:40.811Z,8.23
2018-02-24T18:41:08.389Z,9.17
2018-02-24T18:43:36.249Z,4.30
2018-02-24T18:46:04.061Z,4.70
2018-02-24T18:48:31.643Z,6.87
2018-02-24T18:50:59.375Z,9.83
2018-02-24T18:53:27.152Z,11.40
2018-02-24T18:55:54.830Z,13.67
2018-02-24T18:58:22.479Z,4.90
2018-02-24T19:00:50.172Z,6.60
2018-02-24T19:03:17.743Z,5.27
2018-02-24T19:05:45.339Z,4.10
2018-02-24T19:08:13.003Z,7.33
2018-02-24T19:10:40.888Z,6.90
2018-02-24T19:13:08.620Z,7.40
2018-02-24T19:15:36.219Z,13.40
2018-02-24T19:18:03.845Z,4.63
2018-02-24T19:20:31.479Z,4.80
2018-02-24T19:22:59.407Z,7.80
2018-02-24T19:25:27.020Z,4.50
2018-02-24T19:27:54.819Z,3.60
2018-02-24T19:30:22.485Z,2.53
2018-02-24T19:32:50.048Z,5.03
2018-02-24T19:35:17.844Z,11.33
2018-02-24T19:37:45.516Z,2.97
2018-02-24T19:40:13.102Z,7.63
2018-02-24T19:42:40.672Z,4.53
2018-02-24T19:45:08.332Z,5.57
2018-02-24T19:47:35.958Z,2.17
2018-02-24T19:50:03.574Z,5.47
2018-02-24T19:52:31.238Z,5.20
2018-02-24T19:54:58.833Z,4.30
2018-02-24T19:57:26.526Z,4.73
2018-02-24T19:59:54.181Z,14.20
2018-02-24T20:02:21.858Z,11.07
2018-02-24T20:04:49.632Z,9.03
2018-02-24T20:07:17.204Z,23.43
2018-02-24T20:09:44.772Z,8.27
2018-02-24T20:12:12.438Z,7.83
2018-02-24T20:14:40.032Z,7.83
2018-02-24T20:17:07.808Z,6.53
2018-02-24T20:19:35.481Z,7.33
2018-02-24T20:22:03.081Z,5.77
2018-02-24T20:24:30.723Z,4.80
2018-02-24T20:26:58.617Z,9.60
2018-02-24T20:29:26.391Z,5.40
2018-02-24T20:31:53.963Z,4.77
2018-02-24T20:34:22.566Z,6.57
2018-02-24T20:36:50.342Z,5.33
2018-02-24T20:39:17.925Z,5.30
2018-02-24T20:41:45.543Z,4.90
2018-02-24T20:44:13.180Z,4.50
2018-02-24T20:46:40.942Z,3.50
2018-02-24T20:49:08.539Z,1.73
2018-02-24T20:51:36.289Z,4.23
2018-02-24T20:54:03.920Z,4.13
2018-02-24T20:56:31.634Z,2.73
2018-02-24T20:58:59.209Z,6.27
2018-02-24T21:01:26.989Z,4.90
2018-02-24T21:03:54.752Z,5.67
2018-02-24T21:06:22.545Z,6.30
2018-02-24T21:08:50.221Z,5.40
2018-02-24T21:11:17.999Z,4.60
2018-02-24T21:13:45.623Z,5.63
2018-02-24T21:16:13.263Z,4.33
2018-02-24T21:18:41.026Z,2.20
2018-02-24T21:21:08.807Z,2.63
2018-02-24T21:23:36.423Z,2.60
2018-02-24T21:26:04.110Z,3.20
2018-02-24T21:28:31.730Z,3.10
2018-02-24T21:30:59.397Z,9.37
2018-02-24T21:33:27.056Z,2.20
2018-02-24T21:35:55.252Z,2.97
2018-02-24T21:38:23.163Z,4.90
2018-02-24T21:40:50.822Z,3.03
2018-02-24T21:43:18.507Z,4.50
2018-02-24T21:45:46.154Z,5.30
2018-02-24T21:48:13.775Z,7.27
2018-02-24T21:50:41.360Z,9.97
2018-02-24T21:53:09.095Z,3.27
2018-02-24T21:55:36.773Z,7.13
2018-02-24T21:58:04.442Z,4.70
2018-02-24T22:00:32.225Z,4.70
2018-02-24T22:03:00.002Z,4.47
2018-02-24T22:05:27.675Z,4.17
2018-02-24T22:07:55.336Z,4.50
2018-02-24T22:10:23.130Z,2.30
2018-02-24T22:12:50.881Z,3.43
2018-02-24T22:15:18.468Z,6.13
2018-02-24T22:17:46.137Z,4.20
2018-02-24T22:20:13.833Z,3.60
2018-02-24T22:22:41.449Z,2.50
2018-02-24T22:25:09.086Z,1.87
2018-02-24T22:27:36.868Z,5.00
2018-02-24T22:30:04.540Z,3.63
2018-02-24T22:32:32.284Z,4.70
2018-02-24T22:34:59.995Z,2.50
2018-02-24T22:37:27.595Z,3.73
2018-02-24T22:39:55.455Z,2.30
2018-02-24T22:42:23.089Z,4.83
2018-02-24T22:44:50.791Z,4.40
2018-02-24T22:47:18.477Z,3.40
2018-02-24T22:49:46.358Z,4.13
2018-02-24T22:52:14.019Z,11.20
2018-02-24T22:54:41.600Z,5.43
2018-02-24T22:57:09.278Z,7.70
2018-02-24T22:59:36.885Z,5.27
2018-02-24T23:02:04.630Z,6.80
2018-02-24T23:04:32.298Z,4.10
2018-02-24T23:06:59.869Z,2.27
2018-02-24T23:09:27.473Z,3.67
2018-02-24T23:11:55.081Z,2.53
2018-02-24T23:14:22.809Z,2.60
2018-02-24T23:16:50.443Z,3.10
2018-02-24T23:19:18.257Z,3.00
2018-02-24T23:21:45.828Z,6.50
2018-02-24T23:24:13.423Z,2.67
2018-02-24T23:26:41.145Z,3.60
2018-02-24T23:29:08.841Z,3.63
2018-02-24T23:31:36.635Z,2.90
2018-02-24T23:34:04.368Z,5.63
2018-02-24T23:36:32.075Z,4.57
2018-02-24T23:38:59.640Z,3.33
2018-02-24T23:41:27.363Z,5.17
2018-02-24T23:43:55.008Z,3.30
2018-02-24T23:46:22.576Z,6.83
2018-02-24T23:48:50.413Z,2.53
2018-02-24T23:51:18.022Z,4.37
2018-02-24T23:53:45.817Z,3.47
2018-02-24T23:56:13.589Z,2.33
2018-02-24T23:58:41.216Z,5.00
